Time;durP1;ratioP1;P1;durP2;ratioP2;P2;SDS_P1;SDS_P2;PMS_P1;PMS_P2;Temp;Humidity;BMP_temperature;BMP_pressure;BME280_temperature;BME280_humidity;BME280_pressure;Samples;Min_cycle;Max_cycle;Signal;HPM_P1;HPM_P2
2022/10/13 00:01:29;;;;;;;8.03;4.20;;;;;;;8.93;100.00;100607.59;1709350;82;21498;-68
2022/10/13 00:03:55;;;;;;;6.50;3.83;;;;;;;8.99;100.00;100607.91;1704711;82;21497;-66
2022/10/13 00:06:24;;;;;;;5.85;3.65;;;;;;;8.92;100.00;100601.45;1698060;82;21085;-66
2022/10/13 00:08:51;;;;;;;5.37;4.17;;;;;;;8.89;100.00;100604.16;1710850;82;21758;-66
2022/10/13 00:11:21;;;;;;;7.83;4.20;;;;;;;8.83;100.00;100599.02;1706575;82;21399;-66
2022/10/13 00:13:48;;;;;;;6.03;3.40;;;;;;;8.76;100.00;100598.75;1710806;82;21441;-64
2022/10/13 00:16:19;;;;;;;7.17;3.75;;;;;;;8.65;100.00;100600.72;1707648;82;21494;-66
2022/10/13 00:18:47;;;;;;;8.80;4.12;;;;;;;8.60;100.00;100598.62;1703812;82;20957;-65
2022/10/13 00:21:17;;;;;;;7.17;4.40;;;;;;;8.53;100.00;100599.17;1698734;82;22094;-65
2022/10/13 00:23:45;;;;;;;5.35;3.77;;;;;;;8.48;100.00;100601.91;1707002;82;21516;-65
2022/10/13 00:26:13;;;;;;;6.25;3.90;;;;;;;8.49;100.00;100611.48;1711300;82;21442;-67
2022/10/13 00:28:40;;;;;;;7.20;3.85;;;;;;;8.47;100.00;100610.64;1710738;82;21469;-65
2022/10/13 00:31:23;;;;;;;7.20;4.30;;;;;;;8.48;100.00;100608.91;1710189;82;21541;-65
2022/10/13 00:33:51;;;;;;;7.17;3.83;;;;;;;8.48;100.00;100609.77;1708197;82;21803;-65
2022/10/13 00:36:21;;;;;;;6.60;3.98;;;;;;;8.41;100.00;100602.87;1708064;82;21498;-65
2022/10/13 00:38:47;;;;;;;;;;;;;;;8.37;100.00;100605.98;1709426;83;20981;-66
2022/10/13 00:41:16;;;;;;;8.70;3.55;;;;;;;8.24;100.00;100604.48;1706742;82;20410;-66
2022/10/13 00:44:02;;;;;;;7.28;3.90;;;;;;;8.18;100.00;100605.91;1706842;82;21478;-67
2022/10/13 00:48:00;;;;;;;10.85;5.45;;;;;;;7.75;100.00;100615.79;1794512;79;22988;-69
2022/10/13 00:50:34;;;;;;;10.23;5.83;;;;;;;8.01;100.00;100615.38;1762997;80;21549;-68
2022/10/13 00:53:01;;;;;;;11.38;5.72;;;;;;;7.98;100.00;100611.03;1758064;80;21648;-66
2022/10/13 00:55:32;;;;;;;9.90;6.17;;;;;;;7.93;100.00;100605.45;1757718;80;21482;-67
2022/10/13 00:58:01;;;;;;;11.03;5.85;;;;;;;7.88;100.00;100613.84;1759014;80;21451;-67
2022/10/13 01:00:31;;;;;;;8.28;5.53;;;;;;;7.87;100.00;100606.87;1769875;80;21487;-67
2022/10/13 01:02:58;;;;;;;11.28;4.97;;;;;;;7.89;100.00;100608.59;1766439;80;26120;-66
2022/10/13 01:05:25;;;;;;;7.27;5.37;;;;;;;7.88;100.00;100612.53;1769047;79;21895;-66
2022/10/13 01:07:53;;;;;;;9.48;5.45;;;;;;;7.89;100.00;100611.21;1765832;80;21620;-66
2022/10/13 01:10:35;;;;;;;7.97;5.37;;;;;;;7.89;100.00;100614.25;1732195;81;21498;-66
2022/10/13 01:13:28;;;;;;;11.57;5.65;;;;;;;7.90;100.00;100604.21;1767276;80;21546;-66
2022/10/13 01:16:10;;;;;;;11.25;5.33;;;;;;;7.96;100.00;100612.81;1762390;80;21566;-67
2022/10/13 01:18:45;;;;;;;7.55;4.45;;;;;;;8.01;100.00;100609.28;1766740;80;21942;-67
2022/10/13 01:21:43;;;;;;;9.48;5.28;;;;;;;8.09;100.00;100606.07;1756952;80;21421;-67
2022/10/13 01:24:23;;;;;;;9.10;4.85;;;;;;;8.15;100.00;100603.34;1752831;80;21546;-66
2022/10/13 01:27:26;;;;;;;8.03;5.03;;;;;;;8.21;100.00;100605.84;1733046;80;20978;-67
2022/10/13 01:30:19;;;;;;;9.15;4.75;;;;;;;8.27;100.00;100604.86;1764233;80;21533;-66
2022/10/13 01:32:55;;;;;;;8.20;4.72;;;;;;;8.25;100.00;100609.27;1768520;80;21830;-65
2022/10/13 01:35:57;;;;;;;7.25;4.95;;;;;;;8.24;100.00;100604.48;1715648;80;21497;-65
2022/10/13 01:38:47;;;;;;;11.12;4.90;;;;;;;8.27;100.00;100604.45;1757107;80;21573;-64
2022/10/13 01:41:24;;;;;;;7.03;4.37;;;;;;;8.23;100.00;100604.09;1745933;80;21671;-66
2022/10/13 01:44:17;;;;;;;5.72;4.25;;;;;;;8.19;100.00;100600.66;1759597;80;21426;-66
2022/10/13 01:46:46;;;;;;;8.10;4.67;;;;;;;8.16;100.00;100591.98;1751838;80;21796;-67
2022/10/13 01:49:15;;;;;;;9.43;4.67;;;;;;;8.13;100.00;100594.64;1715479;82;21561;-67
2022/10/13 01:51:42;;;;;;;14.93;5.12;;;;;;;8.15;100.00;100602.87;1713946;82;21562;-67
2022/10/13 01:54:08;;;;;;;8.18;4.35;;;;;;;8.27;100.00;100601.83;1699361;82;21513;-67
2022/10/13 01:56:36;;;;;;;6.45;4.67;;;;;;;8.33;100.00;100604.33;1702876;82;21421;-66
2022/10/13 01:59:10;;;;;;;8.05;4.65;;;;;;;8.35;100.00;100597.30;1722341;82;21753;-66
2022/10/13 02:01:54;;;;;;;7.78;4.75;;;;;;;8.39;100.00;100602.89;1713673;81;21427;-67
2022/10/13 02:04:52;;;;;;;7.00;4.45;;;;;;;8.43;100.00;100597.64;1693337;82;21444;-65
2022/10/13 02:07:30;;;;;;;10.15;4.80;;;;;;;8.42;100.00;100596.78;1718488;82;21420;-67
2022/10/13 02:10:03;;;;;;;6.20;4.15;;;;;;;8.39;100.00;100607.28;1719667;82;21448;-66
2022/10/13 02:12:53;;;;;;;5.45;4.10;;;;;;;8.42;100.00;100602.45;1724776;82;21906;-67
2022/10/13 02:15:24;;;;;;;6.92;4.20;;;;;;;8.44;100.00;100604.17;1717602;82;20980;-67
2022/10/13 02:17:52;;;;;;;5.60;3.75;;;;;;;8.49;100.00;100594.44;1708814;82;21474;-67
2022/10/13 02:20:19;;;;;;;5.10;4.22;;;;;;;8.52;100.00;100599.63;1699364;82;21465;-67
2022/10/13 02:22:48;;;;;;;6.03;4.00;;;;;;;8.56;100.00;100601.30;1708777;82;21606;-67
2022/10/13 02:25:15;;;;;;;7.65;4.03;;;;;;;8.63;100.00;100607.75;1727293;82;21537;-67
2022/10/13 02:27:43;;;;;;;6.87;4.40;;;;;;;8.67;100.00;100598.47;1727826;82;21502;-68
2022/10/13 02:30:21;;;;;;;7.75;4.50;;;;;;;8.73;100.00;100602.28;1725234;81;21519;-67
2022/10/13 02:32:48;;;;;;;13.03;4.80;;;;;;;8.80;100.00;100606.97;1712972;81;21547;-67
2022/10/13 02:35:14;;;;;;;7.80;4.33;;;;;;;8.86;100.00;100609.91;1712441;81;21520;-68
2022/10/13 02:37:41;;;;;;;8.13;4.60;;;;;;;8.87;100.00;100605.06;1721738;81;21834;-68
2022/10/13 02:40:09;;;;;;;8.55;4.42;;;;;;;8.88;100.00;100602.42;1714018;82;21489;-67
2022/10/13 02:42:37;;;;;;;5.15;4.33;;;;;;;8.88;100.00;100603.73;1714932;82;21574;-68
2022/10/13 02:45:05;;;;;;;6.95;4.33;;;;;;;8.92;100.00;100602.77;1704185;82;21023;-69
2022/10/13 02:47:31;;;;;;;6.05;4.33;;;;;;;8.98;100.00;100604.39;1736162;80;22151;-67
2022/10/13 02:49:59;;;;;;;5.72;4.15;;;;;;;9.07;100.00;100596.80;1757412;80;22043;-67
2022/10/13 02:52:26;;;;;;;7.35;4.62;;;;;;;9.23;100.00;100598.62;1757709;80;21490;-67
2022/10/13 02:54:53;;;;;;;9.63;4.45;;;;;;;9.33;100.00;100594.45;1746511;80;21445;-67
2022/10/13 02:57:22;;;;;;;8.50;4.40;;;;;;;9.40;100.00;100591.26;1745513;80;21404;-67
2022/10/13 02:59:49;;;;;;;5.87;3.80;;;;;;;9.41;100.00;100589.03;1747854;80;21549;-67
2022/10/13 03:02:16;;;;;;;4.58;3.80;;;;;;;9.43;100.00;100587.69;1754798;80;21519;-68
2022/10/13 03:04:42;;;;;;;7.40;4.45;;;;;;;9.43;100.00;100591.62;1749918;80;21561;-67
2022/10/13 03:07:09;;;;;;;8.70;4.33;;;;;;;9.40;100.00;100586.43;1752442;80;21491;-67
2022/10/13 03:09:37;;;;;;;;;;;;;;;9.39;100.00;100589.97;1763932;80;21447;-67
2022/10/13 03:12:04;;;;;;;6.42;3.95;;;;;;;9.32;100.00;100591.44;1744728;80;20439;-69
2022/10/13 03:14:30;;;;;;;7.30;3.50;;;;;;;9.27;100.00;100589.35;1757031;80;21795;-66
2022/10/13 03:16:59;;;;;;;10.88;4.72;;;;;;;9.27;100.00;100586.73;1750592;80;21889;-68
2022/10/13 03:19:25;;;;;;;5.50;4.17;;;;;;;9.33;100.00;100590.98;1756634;80;21581;-66
2022/10/13 03:21:52;;;;;;;6.25;4.08;;;;;;;9.45;100.00;100595.93;1751764;80;21045;-66
2022/10/13 03:24:18;;;;;;;7.17;3.98;;;;;;;9.53;100.00;100595.32;1742825;80;21430;-68
2022/10/13 03:26:45;;;;;;;8.35;4.40;;;;;;;9.64;100.00;100600.30;1757106;80;21783;-67
2022/10/13 03:29:15;;;;;;;6.33;3.98;;;;;;;9.65;100.00;100592.00;1757702;80;21521;-68
2022/10/13 03:31:42;;;;;;;;;;;;;;;9.67;100.00;100588.42;1755366;80;21045;-67
2022/10/13 03:34:11;;;;;;;6.28;3.52;;;;;;;9.64;100.00;100587.17;1708945;82;20461;-68
2022/10/13 03:36:38;;;;;;;4.83;3.80;;;;;;;9.66;100.00;100584.09;1748373;80;21427;-66
2022/10/13 03:39:05;;;;;;;5.47;3.72;;;;;;;9.65;100.00;100582.80;1757571;80;21801;-67
2022/10/13 03:41:32;;;;;;;6.25;3.92;;;;;;;9.65;100.00;100587.59;1752052;80;21555;-68
2022/10/13 03:43:58;;;;;;;5.97;4.30;;;;;;;9.62;100.00;100588.12;1757275;80;21509;-67
2022/10/13 03:46:28;;;;;;;6.95;4.12;;;;;;;9.55;100.00;100583.48;1747761;80;21626;-68
2022/10/13 03:48:56;;;;;;;7.08;4.30;;;;;;;9.59;100.00;100592.12;1748914;80;21531;-67
2022/10/13 03:51:23;;;;;;;7.28;3.72;;;;;;;9.61;100.00;100591.20;1755790;80;21880;-67
2022/10/13 03:53:51;;;;;;;6.28;4.40;;;;;;;9.65;100.00;100592.00;1750748;80;20994;-68
2022/10/13 03:56:20;;;;;;;9.13;4.60;;;;;;;9.68;100.00;100594.09;1740487;80;20937;-67
2022/10/13 03:58:58;;;;;;;8.98;4.65;;;;;;;9.65;100.00;100583.66;1752652;80;21554;-68
2022/10/13 04:01:27;;;;;;;8.10;4.50;;;;;;;9.61;100.00;100589.03;1732523;80;21551;-68
2022/10/13 04:03:55;;;;;;;10.23;4.87;;;;;;;9.55;100.00;100596.15;1745395;80;21604;-67
2022/10/13 04:06:22;;;;;;;7.63;4.17;;;;;;;9.51;100.00;100596.23;1749506;80;21603;-67
2022/10/13 04:08:51;;;;;;;8.00;5.05;;;;;;;9.53;100.00;100600.58;1748669;80;21680;-68
2022/10/13 04:11:19;;;;;;;7.70;4.62;;;;;;;9.50;100.00;100604.57;1756649;80;21483;-67
2022/10/13 04:13:47;;;;;;;7.47;4.25;;;;;;;9.47;100.00;100612.97;1750229;80;20934;-67
2022/10/13 04:16:18;;;;;;;6.65;4.10;;;;;;;9.46;100.00;100615.19;1735119;80;21793;-67
2022/10/13 04:18:45;;;;;;;7.70;4.55;;;;;;;9.51;100.00;100615.92;1743877;80;21546;-67
2022/10/13 04:21:13;;;;;;;9.45;5.12;;;;;;;9.58;100.00;100618.83;1743017;80;21463;-67
2022/10/13 04:23:41;;;;;;;9.93;5.95;;;;;;;9.60;100.00;100613.55;1752410;80;21464;-66
2022/10/13 04:26:20;;;;;;;10.83;5.67;;;;;;;9.55;100.00;100605.80;1750609;80;21003;-66
2022/10/13 04:28:49;;;;;;;13.00;6.10;;;;;;;9.45;100.00;100605.11;1751758;80;21790;-67
2022/10/13 04:31:16;;;;;;;8.23;6.03;;;;;;;9.41;100.00;100611.80;1745149;80;21555;-66
2022/10/13 04:33:44;;;;;;;;;;;;;;;9.34;100.00;100613.26;1755582;80;21527;-67
2022/10/13 04:36:11;;;;;;;7.23;5.20;;;;;;;9.25;100.00;100622.64;1753297;80;20169;-66
2022/10/13 04:38:38;;;;;;;7.17;4.95;;;;;;;9.23;100.00;100607.38;1758818;80;21488;-66
2022/10/13 04:41:07;;;;;;;8.05;4.97;;;;;;;9.23;100.00;100610.00;1760097;80;21511;-67
2022/10/13 04:43:34;;;;;;;6.12;4.70;;;;;;;9.27;100.00;100615.59;1755430;80;21415;-65
2022/10/13 04:46:14;;;;;;;10.85;5.62;;;;;;;9.38;100.00;100614.48;1747019;80;21528;-66
2022/10/13 04:48:41;;;;;;;11.30;5.97;;;;;;;9.49;100.00;100618.61;1743855;80;21373;-66
2022/10/13 04:51:11;;;;;;;7.40;5.23;;;;;;;9.55;100.00;100622.86;1755057;80;21449;-67
2022/10/13 04:53:37;;;;;;;11.75;5.72;;;;;;;9.56;100.00;100619.31;1744337;80;22139;-67
2022/10/13 04:56:09;;;;;;;10.18;6.17;;;;;;;9.58;100.00;100619.29;1751326;80;21513;-67
2022/10/13 04:58:38;;;;;;;11.35;5.58;;;;;;;9.57;100.00;100617.55;1745825;80;21531;-67
2022/10/13 05:01:06;;;;;;;15.95;5.83;;;;;;;9.58;100.00;100614.89;1746822;80;21574;-66
2022/10/13 05:03:33;;;;;;;8.83;5.42;;;;;;;9.58;100.00;100622.77;1751019;80;21053;-66
2022/10/13 05:06:00;;;;;;;9.28;5.53;;;;;;;9.53;100.00;100616.33;1753092;80;26585;-66
2022/10/13 05:08:27;;;;;;;9.98;5.40;;;;;;;9.50;100.00;100623.41;1758219;80;21435;-66
2022/10/13 05:11:00;;;;;;;8.10;5.73;;;;;;;9.62;100.00;100627.50;1747982;80;21466;-66
2022/10/13 05:13:27;;;;;;;9.78;5.72;;;;;;;9.62;100.00;100627.50;1743618;80;21449;-66
2022/10/13 05:15:57;;;;;;;7.15;5.58;;;;;;;9.66;100.00;100628.73;1757187;80;21593;-66
2022/10/13 05:18:24;;;;;;;9.77;5.73;;;;;;;9.70;100.00;100628.17;1745682;80;21796;-66
2022/10/13 05:20:52;;;;;;;;;;;;;;;9.70;100.00;100628.17;1748846;80;21786;-67
2022/10/13 05:23:19;;;;;;;11.63;6.10;;;;;;;9.60;100.00;100623.59;1750413;80;20437;-66
2022/10/13 05:25:45;;;;;;;9.63;5.58;;;;;;;9.59;100.00;100627.13;1756427;80;21553;-67
2022/10/13 05:28:13;;;;;;;;;;;;;;;9.61;100.00;100629.27;1743823;80;20993;-66
2022/10/13 05:30:40;;;;;;;8.98;5.62;;;;;;;9.59;100.00;100629.77;1747109;80;22038;-67
2022/10/13 05:33:07;;;;;;;12.58;7.28;;;;;;;9.59;100.00;100632.39;1757308;80;21518;-66
2022/10/13 05:35:33;;;;;;;10.57;7.77;;;;;;;9.60;100.00;100639.80;1762587;80;21589;-67
2022/10/13 05:38:01;;;;;;;11.00;6.10;;;;;;;9.60;100.00;100634.55;1719666;80;21518;-67
2022/10/13 05:40:28;;;;;;;12.23;7.72;;;;;;;9.66;100.00;100646.22;1736272;80;21444;-67
2022/10/13 05:42:56;;;;;;;12.35;7.53;;;;;;;9.72;100.00;100643.02;1751098;80;21821;-67
2022/10/13 05:45:24;;;;;;;11.43;6.22;;;;;;;9.84;100.00;100648.42;1759893;80;21459;-68
2022/10/13 05:47:50;;;;;;;12.90;7.35;;;;;;;9.94;100.00;100643.38;1745083;80;20983;-66
2022/10/13 05:50:18;;;;;;;11.53;6.62;;;;;;;9.94;100.00;100642.06;1753010;80;20943;-67
2022/10/13 05:52:44;;;;;;;17.30;7.20;;;;;;;9.99;100.00;100636.69;1755548;80;20982;-66
2022/10/13 05:55:12;;;;;;;11.00;6.58;;;;;;;10.06;100.00;100648.77;1745911;80;21923;-63
2022/10/13 05:57:41;;;;;;;9.70;6.35;;;;;;;10.12;100.00;100645.13;1694458;83;21503;-64
2022/10/13 06:00:13;;;;;;;14.30;6.50;;;;;;;10.19;100.00;100650.66;1742584;80;21034;-64
2022/10/13 06:03:04;;;;;;;10.43;5.92;;;;;;;10.23;100.00;100652.76;1743491;80;21562;-62
2022/10/13 06:05:32;;;;;;;11.10;6.42;;;;;;;10.25;100.00;100657.06;1749655;80;21093;-62
2022/10/13 06:08:00;;;;;;;10.70;6.17;;;;;;;10.21;100.00;100651.48;1748273;80;21613;-63
2022/10/13 06:10:28;;;;;;;13.85;6.45;;;;;;;10.25;100.00;100648.32;1744364;80;20999;-65
2022/10/13 06:12:56;;;;;;;8.08;5.30;;;;;;;10.30;100.00;100646.42;1754182;80;21673;-64
2022/10/13 06:15:23;;;;;;;9.18;5.92;;;;;;;10.37;100.00;100653.73;1739377;80;21603;-65
2022/10/13 06:17:51;;;;;;;12.60;6.17;;;;;;;10.40;100.00;100647.10;1744266;80;21401;-65
2022/10/13 06:20:18;;;;;;;11.68;6.97;;;;;;;10.44;100.00;100649.59;1749617;80;22056;-67
2022/10/13 06:22:45;;;;;;;9.03;5.87;;;;;;;10.40;100.00;100647.95;1751511;80;21519;-66
2022/10/13 06:25:12;;;;;;;11.93;6.55;;;;;;;10.37;100.00;100648.48;1747034;80;21428;-68
2022/10/13 06:27:38;;;;;;;9.80;6.33;;;;;;;10.41;100.00;100649.66;1752470;80;21073;-67
2022/10/13 06:30:07;;;;;;;9.70;5.55;;;;;;;10.48;100.00;100653.86;1749714;80;21574;-63
2022/10/13 06:32:34;;;;;;;10.30;6.20;;;;;;;10.52;100.00;100659.45;1746800;80;21800;-65
2022/10/13 06:35:01;;;;;;;8.88;6.35;;;;;;;10.59;100.00;100657.53;1749296;80;21132;-63
2022/10/13 06:37:28;;;;;;;8.45;5.45;;;;;;;10.62;100.00;100653.95;1744013;80;21475;-63
2022/10/13 06:39:56;;;;;;;9.58;5.50;;;;;;;10.66;100.00;100663.47;1708052;82;21105;-64
2022/10/13 06:42:22;;;;;;;11.38;4.85;;;;;;;10.71;100.00;100652.38;1733645;80;21593;-64
2022/10/13 06:44:50;;;;;;;7.37;5.10;;;;;;;10.75;100.00;100654.02;1747400;80;21708;-65
2022/10/13 06:47:17;;;;;;;6.60;5.25;;;;;;;10.82;100.00;100650.78;1746015;80;21565;-64
2022/10/13 06:49:43;;;;;;;10.13;5.72;;;;;;;10.89;100.00;100653.20;1751512;80;21498;-65
2022/10/13 06:52:13;;;;;;;8.98;6.42;;;;;;;10.96;100.00;100655.19;1744387;80;21580;-65
2022/10/13 06:54:40;;;;;;;11.43;6.40;;;;;;;10.97;100.00;100657.39;1751644;80;21628;-67
2022/10/13 06:57:07;;;;;;;9.33;5.97;;;;;;;10.99;100.00;100659.52;1730365;80;21633;-66
2022/10/13 06:59:33;;;;;;;10.88;6.05;;;;;;;11.04;100.00;100650.59;1752096;80;21582;-64
2022/10/13 07:02:01;;;;;;;8.88;5.28;;;;;;;11.05;100.00;100654.08;1750006;80;21605;-66
2022/10/13 07:04:28;;;;;;;12.40;5.67;;;;;;;11.07;100.00;100654.89;1753814;80;20977;-64
2022/10/13 07:06:58;;;;;;;7.67;5.55;;;;;;;11.24;100.00;100657.89;1748871;80;21431;-67
2022/10/13 07:09:26;;;;;;;12.50;5.37;;;;;;;11.43;100.00;100648.13;1754903;80;21910;-67
2022/10/13 07:11:52;;;;;;;10.23;5.85;;;;;;;11.51;100.00;100654.05;1753513;80;21567;-67
2022/10/13 07:14:20;;;;;;;9.53;5.78;;;;;;;11.54;100.00;100649.98;1747477;80;21479;-67
2022/10/13 07:16:48;;;;;;;11.03;6.33;;;;;;;11.60;100.00;100649.81;1737752;80;21042;-67
2022/10/13 07:19:15;;;;;;;9.03;5.55;;;;;;;11.65;100.00;100649.66;1750356;80;21532;-68
2022/10/13 07:21:44;;;;;;;10.08;6.08;;;;;;;11.70;100.00;100651.70;1750036;80;21920;-68
2022/10/13 07:24:10;;;;;;;9.85;6.03;;;;;;;11.73;100.00;100654.22;1755362;80;21567;-68
2022/10/13 07:26:38;;;;;;;9.45;6.22;;;;;;;11.79;100.00;100649.20;1740731;80;21775;-68
2022/10/13 07:29:05;;;;;;;13.58;8.45;;;;;;;11.85;100.00;100652.98;1755232;80;21016;-68
2022/10/13 07:31:33;;;;;;;14.65;7.30;;;;;;;11.92;100.00;100651.03;1746829;80;25748;-70
2022/10/13 07:33:59;;;;;;;15.03;7.67;;;;;;;11.92;100.00;100644.45;1750728;80;21776;-67
2022/10/13 07:36:27;;;;;;;21.12;8.15;;;;;;;12.03;100.00;100649.77;1740646;80;21412;-68
2022/10/13 07:38:57;;;;;;;17.87;9.10;;;;;;;12.18;100.00;100648.86;1743629;80;21486;-66
2022/10/13 07:41:24;;;;;;;19.23;9.63;;;;;;;12.15;100.00;100647.20;1750129;80;21072;-68
2022/10/13 07:43:56;;;;;;;17.05;9.18;;;;;;;12.13;100.00;100656.05;1751850;80;21412;-68
2022/10/13 07:46:23;;;;;;;16.27;8.78;;;;;;;12.22;100.00;100653.11;1739895;80;21416;-69
2022/10/13 07:48:52;;;;;;;14.35;8.38;;;;;;;12.28;100.00;100658.17;1743753;80;21475;-69
2022/10/13 07:51:19;;;;;;;13.15;7.75;;;;;;;12.31;100.00;100659.41;1750868;80;21574;-67
2022/10/13 07:53:47;;;;;;;13.63;7.57;;;;;;;12.29;100.00;100658.59;1750034;80;21605;-70
2022/10/13 07:56:14;;;;;;;9.73;6.42;;;;;;;12.34;100.00;100655.78;1748147;80;21905;-68
2022/10/13 07:58:44;;;;;;;10.48;6.62;;;;;;;12.38;100.00;100649.05;1751880;80;21780;-69
2022/10/13 08:01:12;;;;;;;12.00;6.03;;;;;;;12.48;100.00;100648.27;1744549;80;21387;-67
2022/10/13 08:03:40;;;;;;;20.48;6.22;;;;;;;12.55;100.00;100652.89;1746765;80;21508;-68
2022/10/13 08:06:09;;;;;;;14.05;6.40;;;;;;;12.53;100.00;100654.27;1752188;80;21475;-69
2022/10/13 08:08:36;;;;;;;9.23;6.25;;;;;;;12.56;100.00;100654.60;1753728;80;21533;-68
2022/10/13 08:11:06;;;;;;;15.25;6.65;;;;;;;12.62;100.00;100646.03;1748118;80;21586;-69
2022/10/13 08:13:34;;;;;;;52.53;21.20;;;;;;;12.77;100.00;100641.09;1753808;80;22232;-69
2022/10/13 08:16:03;;;;;;;46.05;19.07;;;;;;;12.92;100.00;100643.20;1752624;80;21607;-68
2022/10/13 08:18:30;;;;;;;35.75;13.75;;;;;;;12.99;100.00;100641.19;1745632;80;21506;-69
2022/10/13 08:21:01;;;;;;;24.95;12.05;;;;;;;13.04;100.00;100647.17;1747160;80;21572;-67
2022/10/13 08:23:46;;;;;;;15.90;7.85;;;;;;;13.11;100.00;100649.98;1742388;80;21460;-71
2022/10/13 08:26:19;;;;;;;14.13;6.60;;;;;;;13.16;100.00;100646.69;1741873;80;21063;-71
2022/10/13 08:28:46;;;;;;;9.58;6.15;;;;;;;13.24;100.00;100645.08;1755665;80;21537;-68
2022/10/13 08:31:13;;;;;;;7.78;5.53;;;;;;;13.29;100.00;100648.88;1750579;80;21605;-68
2022/10/13 08:33:41;;;;;;;11.55;5.90;;;;;;;13.34;100.00;100647.82;1750853;80;21473;-68
2022/10/13 08:36:09;;;;;;;;;;;;;;;13.39;100.00;100647.20;1753434;80;21736;-69
2022/10/13 08:38:36;;;;;;;10.35;4.53;;;;;;;13.43;100.00;100652.75;1748333;80;20429;-69
2022/10/13 08:41:03;;;;;;;9.15;4.00;;;;;;;13.47;100.00;100649.53;1752245;80;21552;-69
2022/10/13 08:43:29;;;;;;;6.35;4.00;;;;;;;13.50;100.00;100646.75;1684905;80;21451;-67
2022/10/13 08:45:59;;;;;;;13.70;4.45;;;;;;;13.50;100.00;100646.75;1745259;80;24708;-68
2022/10/13 08:48:31;;;;;;;7.55;4.10;;;;;;;13.55;100.00;100651.88;1738860;80;21387;-69
2022/10/13 08:51:01;;;;;;;11.55;4.50;;;;;;;13.65;100.00;100655.02;1747478;80;21498;-68
2022/10/13 08:53:40;;;;;;;9.65;4.25;;;;;;;13.76;100.00;100648.38;1762709;80;20947;-68
2022/10/13 08:56:11;;;;;;;;;;;;;;;13.89;100.00;100645.25;1766007;80;21006;-67
2022/10/13 08:58:41;;;;;;;10.20;3.87;;;;;;;13.97;100.00;100637.86;1751579;80;20146;-67
2022/10/13 09:01:18;;;;;;;10.18;4.50;;;;;;;14.13;100.00;100647.35;1760985;80;21797;-67
2022/10/13 09:03:55;;;;;;;9.08;4.28;;;;;;;14.24;100.00;100646.87;1696858;82;21475;-67
2022/10/13 09:06:30;;;;;;;7.83;4.30;;;;;;;14.30;100.00;100646.64;1720617;82;22165;-67
2022/10/13 09:09:03;;;;;;;6.90;4.58;;;;;;;14.31;100.00;100649.20;1698234;83;21602;-68
2022/10/13 09:11:38;;;;;;;9.38;5.20;;;;;;;14.33;100.00;100652.64;1751274;80;21496;-65
2022/10/13 09:14:09;;;;;;;7.78;4.60;;;;;;;14.39;100.00;100650.20;1766602;80;21557;-66
2022/10/13 09:16:39;;;;;;;13.05;5.62;;;;;;;14.44;100.00;100652.66;1750693;80;21494;-67
2022/10/13 09:19:16;;;;;;;9.08;4.37;;;;;;;14.45;100.00;100655.25;1754164;80;21494;-67
2022/10/13 09:21:43;;;;;;;8.78;5.08;;;;;;;14.48;100.00;100645.84;1761383;80;21068;-68
2022/10/13 09:24:18;;;;;;;7.83;4.65;;;;;;;14.47;100.00;100645.93;1760100;80;21525;-67
2022/10/13 09:26:47;;;;;;;9.15;4.50;;;;;;;14.47;100.00;100650.75;1768622;80;21778;-69
2022/10/13 09:29:24;;;;;;;7.17;4.80;;;;;;;14.50;100.00;100651.06;1754298;80;21506;-67
2022/10/13 09:31:55;;;;;;;10.90;4.42;;;;;;;14.49;100.00;100648.89;1737077;80;21439;-64
2022/10/13 09:34:24;;;;;;;7.90;4.42;;;;;;;14.52;100.00;100647.45;1711934;80;21470;-64
2022/10/13 09:37:04;;;;;;;7.87;3.98;;;;;;;14.60;100.00;100644.50;1760688;80;21585;-66
2022/10/13 09:39:31;;;;;;;;;;;;;;;14.65;100.00;100645.13;1765635;80;21872;-65
2022/10/13 09:42:23;;;;;;;6.85;3.62;;;;;;;14.58;96.49;100645.88;1754620;80;20137;-64
2022/10/13 09:45:07;;;;;;;10.10;4.10;;;;;;;14.49;100.00;100638.31;1727203;80;21522;-65
2022/10/13 09:47:34;;;;;;;9.20;4.33;;;;;;;14.41;100.00;100639.11;1749025;80;22144;-65
2022/10/13 09:50:06;;;;;;;12.50;3.77;;;;;;;14.43;100.00;100641.23;1747909;80;21014;-67
2022/10/13 09:52:33;;;;;;;8.40;3.90;;;;;;;14.50;100.00;100633.39;1749549;80;22401;-66
2022/10/13 09:55:01;;;;;;;6.35;3.70;;;;;;;14.56;100.00;100639.77;1745133;80;21519;-68
2022/10/13 09:57:44;;;;;;;7.25;3.77;;;;;;;14.64;100.00;100634.17;1726717;80;21669;-68
2022/10/13 10:00:27;;;;;;;10.20;3.92;;;;;;;14.72;100.00;100632.03;1745524;80;21424;-69
2022/10/13 10:03:03;;;;;;;10.30;3.45;;;;;;;14.79;100.00;100628.19;1742296;80;21546;-66
2022/10/13 10:05:54;;;;;;;7.12;3.55;;;;;;;14.79;99.64;100624.22;1752806;80;21786;-66
2022/10/13 10:08:36;;;;;;;7.72;3.83;;;;;;;14.75;99.40;100630.59;1745330;80;21542;-67
2022/10/13 10:11:07;;;;;;;6.67;3.05;;;;;;;14.74;100.00;100631.97;1750117;80;21581;-62
2022/10/13 10:13:33;;;;;;;7.70;4.20;;;;;;;14.78;99.95;100629.58;1740254;80;21050;-70
2022/10/13 10:16:10;;;;;;;6.47;3.37;;;;;;;14.83;100.00;100626.27;1751810;80;21041;-70
2022/10/13 10:19:00;;;;;;;6.65;2.80;;;;;;;14.89;99.33;100625.13;1742174;80;21889;-68
2022/10/13 10:21:49;;;;;;;7.28;2.98;;;;;;;14.87;98.80;100628.32;1743514;80;21515;-68
2022/10/13 10:24:35;;;;;;;5.35;2.70;;;;;;;14.89;98.56;100629.11;1748942;80;21507;-67
2022/10/13 10:27:16;;;;;;;6.12;2.45;;;;;;;14.90;97.72;100623.75;1720986;80;21742;-69
2022/10/13 10:29:57;;;;;;;4.47;2.10;;;;;;;14.98;97.77;100628.70;1746058;80;21582;-68
2022/10/13 10:32:53;;;;;;;5.92;2.10;;;;;;;15.04;97.10;100622.25;1746748;80;21597;-66
2022/10/13 10:35:50;;;;;;;5.67;2.50;;;;;;;15.01;96.15;100617.94;1743291;80;21533;-66
2022/10/13 10:38:28;;;;;;;4.37;2.12;;;;;;;15.00;96.48;100617.56;1742728;80;21542;-68
2022/10/13 10:41:24;;;;;;;7.47;2.10;;;;;;;15.00;95.71;100613.59;1744917;80;21537;-66
2022/10/13 10:44:12;;;;;;;5.90;2.20;;;;;;;15.04;95.80;100612.98;1745983;80;21427;-68
2022/10/13 10:46:50;;;;;;;5.30;2.20;;;;;;;15.07;95.50;100616.80;1744978;80;21555;-68
2022/10/13 10:49:35;;;;;;;6.28;2.58;;;;;;;15.07;95.69;100615.03;1742634;80;21478;-70
2022/10/13 10:52:09;;;;;;;8.40;3.10;;;;;;;15.09;94.37;100614.50;1703651;82;21466;-68
2022/10/13 10:54:54;;;;;;;8.40;2.67;;;;;;;15.09;94.60;100611.84;1713683;81;21089;-70
2022/10/13 10:57:29;;;;;;;6.28;3.02;;;;;;;15.09;94.82;100611.00;1705756;82;21593;-67
2022/10/13 11:00:04;;;;;;;8.60;3.30;;;;;;;15.14;94.42;100612.94;1708796;83;21839;-69
2022/10/13 11:03:10;;;;;;;3.85;2.72;;;;;;;15.19;94.07;100605.18;1712647;82;21427;-69
2022/10/13 11:06:04;;;;;;;7.62;3.35;;;;;;;15.17;94.06;100608.37;1708043;81;21093;-69
2022/10/13 11:08:41;;;;;;;5.37;3.10;;;;;;;15.21;94.21;100601.61;1713362;81;21459;-67
2022/10/13 11:11:28;;;;;;;6.15;2.92;;;;;;;15.25;94.04;100606.68;1708635;81;21018;-68
2022/10/13 11:14:01;;;;;;;4.67;3.00;;;;;;;15.24;93.55;100602.77;1711424;83;21943;-68
2022/10/13 11:16:59;;;;;;;9.18;3.55;;;;;;;15.23;94.02;100597.95;1701776;83;21423;-69
2022/10/13 11:19:29;;;;;;;6.28;3.60;;;;;;;15.19;93.31;100603.00;1657631;83;21017;-68
2022/10/13 11:22:01;;;;;;;7.75;3.60;;;;;;;15.08;94.13;100606.14;1682520;84;21525;-66
2022/10/13 11:24:42;;;;;;;8.95;3.50;;;;;;;15.11;93.78;100599.39;1671138;83;21553;-68
2022/10/13 11:27:17;;;;;;;8.63;3.50;;;;;;;15.17;93.90;100598.24;1655396;86;21801;-66
2022/10/13 11:29:56;;;;;;;7.40;3.50;;;;;;;15.22;93.38;100594.92;1709570;83;21053;-69
2022/10/13 11:32:40;;;;;;;7.03;4.15;;;;;;;15.18;93.18;100594.65;1676774;83;21575;-71
2022/10/13 11:35:24;;;;;;;9.80;3.55;;;;;;;15.23;92.57;100592.65;1650298;84;21612;-66
2022/10/13 11:38:07;;;;;;;10.38;3.90;;;;;;;15.28;92.75;100591.12;1713381;82;21068;-70
2022/10/13 11:41:07;;;;;;;6.40;3.58;;;;;;;15.37;92.96;100595.52;1694938;83;21809;-69
2022/10/13 11:44:03;;;;;;;7.92;3.98;;;;;;;15.37;91.43;100589.37;1705884;83;21065;-71
2022/10/13 11:46:58;;;;;;;10.70;4.78;;;;;;;15.37;91.90;100592.02;1710570;80;21756;-70